ENLA weather

Ula Platform
Norway

Public forecast

Using degrees Celsius for public forecast. Weather courtesy of forecast.io.

Current aviation weather report (METAR) for Ula Platform

Retrieved 2019/10/13 23:20 UTC (30 minutes ago):

ENLA 132320Z AUTO 36014KT 9999NDV FEW016/// BKN049/// 11/07 Q1002 W///S3

Closest aviation forecast (TAF) to Ula Platform

Closest forecast is Oseberg A Platform, 82.9 nm (153.5 km) N. Retrieved 2019/10/13 21:57 UTC (2 hours ago):

TAF TAF ENOA 132000Z 1321/1421 10012KT 9999 FEW010 SCT030 TEMPO 1321/1403 -SHRA BKN014TCU BECMG 1321/1323 VRB07KT BECMG 1415/1418 15012KT